Terminal Aerodrome Forecast
Issued by NWS Lake Charles, LA

Home | Current Version | Previous Version | Text Only | Print | Product List | Glossary On
Versions: 1 2 3 4 5 6 7 8 9 10 11 12 13 14
000
FTUS44 KLCH 270520
TAFAEX
TAF
KAEX 270520Z 2706/2806 VRB03KT P6SM BKN250
     FM271600 10006KT P6SM SCT035 BKN050
     FM272000 12008KT P6SM VCTS FEW025CB SCT040 BKN060
     FM280100 VRB03KT P6SM FEW050 BKN250=

USA.gov is the U.S. government's official web portal to all federal, state and local government web resources and services.